Terminal Aerodrome Forecast
Issued by NWS

Home | Current Version | Previous Version | Text Only | Print | Product List | Glossary Off
Versions: 1 2 3 4 5 6 7 8 9 10 11 12 13

364
FTUS43 KICT 090528
TAFRSL
TAF
KRSL 090528Z 0906/1006 32014KT P6SM BKN200
     FM092300 30007KT P6SM SKC=

USA.gov is the U.S. government's official web portal to all federal, state and local government web resources and services.